Time;durP1;ratioP1;P1;durP2;ratioP2;P2;SDS_P1;SDS_P2;PMS_P1;PMS_P2;Temp;Humidity;BMP_temperature;BMP_pressure;BME280_temperature;BME280_humidity;BME280_pressure;Samples;Min_cycle;Max_cycle;Signal;HPM_P1;HPM_P2
2022/10/24 00:01:18;;;;;;;3.33;2.67;;;;;;;21.91;44.99;95630.97;5061918;28;20028;-69
2022/10/24 00:03:44;;;;;;;3.60;2.53;;;;;;;22.01;44.96;95682.72;5035675;28;20541;-65
2022/10/24 00:06:09;;;;;;;4.47;2.50;;;;;;;22.01;45.24;95658.25;5055078;28;20109;-64
2022/10/24 00:08:35;;;;;;;3.35;2.47;;;;;;;22.01;45.10;95652.06;5029986;28;20466;-63
2022/10/24 00:11:00;;;;;;;4.55;2.90;;;;;;;21.94;44.90;95647.81;5059297;28;20048;-67
2022/10/24 00:13:26;;;;;;;3.75;2.90;;;;;;;22.00;44.99;95645.88;5034260;28;20041;-63
2022/10/24 00:15:51;;;;;;;3.45;2.53;;;;;;;22.01;44.98;95641.94;5046107;28;20466;-65
2022/10/24 00:18:17;;;;;;;3.35;2.63;;;;;;;21.99;45.15;95649.84;5051274;28;20578;-66
2022/10/24 00:20:42;;;;;;;3.78;2.65;;;;;;;21.99;45.15;95649.09;5054699;28;20040;-69
2022/10/24 00:23:08;;;;;;;3.50;2.67;;;;;;;21.38;45.04;95546.56;5057971;28;20056;-68
2022/10/24 00:25:33;;;;;;;3.72;2.72;;;;;;;21.94;45.11;95631.50;5045141;28;20041;-69
2022/10/24 00:27:59;;;;;;;3.80;2.60;;;;;;;21.22;44.97;95520.03;5013037;28;20112;-66
2022/10/24 00:30:24;;;;;;;3.50;2.40;;;;;;;21.94;45.06;95634.22;5061252;28;20431;-65
2022/10/24 00:32:50;;;;;;;3.17;2.35;;;;;;;21.97;45.21;95635.97;5060521;28;20587;-63
2022/10/24 00:35:16;;;;;;;3.30;2.70;;;;;;;21.91;45.25;95622.81;5048898;28;20047;-63
2022/10/24 00:37:41;;;;;;;4.47;3.20;;;;;;;21.78;45.05;95633.34;5056673;28;20044;-66
2022/10/24 00:40:07;;;;;;;3.95;2.80;;;;;;;21.10;45.37;95498.69;5060906;28;20416;-69
2022/10/24 00:42:33;;;;;;;3.35;2.58;;;;;;;21.81;45.09;95607.91;5038620;28;20045;-67
2022/10/24 00:44:58;;;;;;;3.95;2.75;;;;;;;21.96;45.08;95634.47;5060176;28;20048;-68
2022/10/24 00:47:25;;;;;;;3.70;2.67;;;;;;;21.96;45.22;95631.75;5043441;28;20138;-65
2022/10/24 00:49:59;;;;;;;5.57;2.70;;;;;;;21.97;45.51;95630.53;5040135;28;20052;-66
2022/10/24 00:52:30;;;;;;;4.32;2.78;;;;;;;21.96;45.14;95631.75;5019911;28;20053;-66
2022/10/24 00:54:56;;;;;;;3.55;2.65;;;;;;;21.96;45.14;95644.63;5047888;28;20085;-59
2022/10/24 00:57:27;;;;;;;4.30;2.97;;;;;;;21.82;45.38;95617.56;5057244;28;20093;-70
2022/10/24 00:59:56;;;;;;;4.38;2.90;;;;;;;21.95;44.99;95637.69;5034185;28;20220;-72
2022/10/24 01:02:21;;;;;;;4.43;2.97;;;;;;;21.95;45.25;95654.75;5013352;28;20037;-64
2022/10/24 01:04:47;;;;;;;3.78;2.67;;;;;;;21.68;45.29;95596.72;5030820;28;20103;-70
2022/10/24 01:07:18;;;;;;;3.53;2.88;;;;;;;21.94;45.15;95642.38;5060757;28;20231;-70
2022/10/24 01:10:16;;;;;;;4.28;2.90;;;;;;;21.93;45.08;95635.44;5043623;28;20132;-64
2022/10/24 01:12:47;;;;;;;3.55;2.80;;;;;;;21.93;45.25;95635.44;5017117;28;20051;-69
2022/10/24 01:15:34;;;;;;;4.20;3.00;;;;;;;21.93;45.24;95635.44;5051954;28;20050;-65
2022/10/24 01:18:08;;;;;;;4.57;3.03;;;;;;;21.94;44.98;95647.81;5056558;28;20101;-61
2022/10/24 01:20:34;;;;;;;3.38;2.70;;;;;;;21.92;45.08;95632.47;5043012;28;20525;-63
2022/10/24 01:23:40;;;;;;;3.85;2.70;;;;;;;21.92;45.14;95639.38;5059801;28;20560;-69
2022/10/24 01:26:12;;;;;;;5.03;3.00;;;;;;;21.92;45.17;95639.38;4980475;28;20057;-67
2022/10/24 01:28:43;;;;;;;4.40;2.70;;;;;;;21.14;45.24;95521.69;5060364;28;20072;-69
2022/10/24 01:31:16;;;;;;;3.70;2.83;;;;;;;21.91;45.24;95642.59;5059007;28;20039;-65
2022/10/24 01:33:45;;;;;;;3.58;2.58;;;;;;;21.91;45.12;95647.28;5037100;28;20049;-66
2022/10/24 01:36:16;;;;;;;3.40;2.80;;;;;;;21.88;45.53;95637.38;5012963;28;20057;-67
2022/10/24 01:38:56;;;;;;;4.07;2.90;;;;;;;21.90;45.36;95640.34;5042483;28;20044;-60
2022/10/24 01:41:23;;;;;;;4.10;3.00;;;;;;;20.93;45.24;95494.38;5024926;28;20400;-71
2022/10/24 01:44:07;;;;;;;4.07;2.83;;;;;;;21.10;45.27;95526.59;5035926;28;20045;-63
2022/10/24 01:46:35;;;;;;;3.70;2.70;;;;;;;21.79;45.03;95624.72;4994083;28;20038;-67
2022/10/24 01:49:09;;;;;;;3.80;2.90;;;;;;;21.84;45.42;95626.75;5011809;28;20583;-68
2022/10/24 01:51:35;;;;;;;4.00;2.83;;;;;;;21.88;45.33;95649.00;5036961;28;20539;-66
2022/10/24 01:54:00;;;;;;;3.83;2.63;;;;;;;21.88;45.35;95629.22;5027682;28;20048;-63
2022/10/24 01:56:26;;;;;;;4.30;2.80;;;;;;;21.61;45.36;95597.16;5049446;28;20028;-72
2022/10/24 01:58:51;;;;;;;4.32;2.90;;;;;;;21.87;45.44;95635.88;5060326;28;20074;-67
2022/10/24 02:01:20;;;;;;;3.63;2.65;;;;;;;21.69;45.24;95647.16;5031171;28;20416;-65
2022/10/24 02:03:54;;;;;;;4.65;3.15;;;;;;;21.88;45.20;95631.94;5015158;28;21060;-66
2022/10/24 02:06:31;;;;;;;4.82;3.28;;;;;;;21.13;45.23;95514.75;5015925;28;20052;-58
2022/10/24 02:08:58;;;;;;;4.00;3.03;;;;;;;21.86;45.20;95634.41;5009796;28;20055;-67
2022/10/24 02:11:24;;;;;;;4.40;2.95;;;;;;;21.86;45.51;95645.28;5038917;28;20202;-67
2022/10/24 02:13:59;;;;;;;4.07;2.90;;;;;;;21.57;45.62;95596.66;5051639;28;20795;-68
2022/10/24 02:16:24;;;;;;;4.10;3.10;;;;;;;21.84;45.34;95636.84;5031339;28;20469;-70
2022/10/24 02:18:51;;;;;;;3.75;2.65;;;;;;;21.84;45.59;95631.41;5031658;28;20158;-64
2022/10/24 02:21:35;;;;;;;3.97;2.88;;;;;;;21.84;45.40;95631.41;5043489;28;20514;-71
2022/10/24 02:24:02;;;;;;;3.53;2.72;;;;;;;21.75;45.08;95618.00;5055965;28;20517;-68
2022/10/24 02:26:55;;;;;;;3.72;2.95;;;;;;;21.85;45.41;95635.63;5053965;28;20048;-65
2022/10/24 02:29:33;;;;;;;3.63;2.83;;;;;;;21.86;45.30;95628.97;5041527;28;20048;-65
2022/10/24 02:31:58;;;;;;;4.22;3.28;;;;;;;21.85;45.24;95638.34;5045291;28;20394;-70
2022/10/24 02:34:25;;;;;;;4.00;3.15;;;;;;;21.83;45.23;95662.56;5052787;28;20098;-67
2022/10/24 02:36:51;;;;;;;3.40;2.90;;;;;;;21.83;45.42;95629.94;5009555;28;20040;-68
2022/10/24 02:39:17;;;;;;;4.38;3.35;;;;;;;21.72;45.26;95608.09;5012671;28;20040;-62
2022/10/24 02:41:42;;;;;;;4.32;3.13;;;;;;;21.72;45.25;95618.97;5044432;28;20063;-67
2022/10/24 02:44:08;;;;;;;4.57;3.20;;;;;;;21.82;45.37;95631.16;5019838;28;20140;-66
2022/10/24 02:46:33;;;;;;;4.15;2.90;;;;;;;21.84;45.39;95634.13;5030628;28;20036;-68
2022/10/24 02:49:00;;;;;;;4.00;3.05;;;;;;;21.84;45.53;95639.56;5046607;28;20437;-58
2022/10/24 02:51:27;;;;;;;4.03;3.00;;;;;;;21.85;45.34;95639.09;5044926;28;20145;-66
2022/10/24 02:53:52;;;;;;;4.28;2.88;;;;;;;21.83;45.32;95635.38;5021268;28;20128;-70
2022/10/24 02:56:18;;;;;;;3.85;3.25;;;;;;;21.81;45.42;95632.38;5052749;28;20090;-61
2022/10/24 02:58:43;;;;;;;4.15;3.00;;;;;;;21.82;45.49;95633.88;5045105;28;20043;-67
2022/10/24 03:01:09;;;;;;;3.72;3.00;;;;;;;21.81;45.46;95637.81;5050106;28;20121;-67
2022/10/24 03:03:34;;;;;;;4.68;3.35;;;;;;;21.75;45.66;95615.28;5050039;28;20127;-63
2022/10/24 03:06:00;;;;;;;3.55;2.60;;;;;;;20.86;45.42;95483.94;5017955;28;20049;-62
2022/10/24 03:08:25;;;;;;;5.35;3.30;;;;;;;21.78;45.42;95627.91;5025813;28;20040;-67
2022/10/24 03:10:50;;;;;;;4.25;3.30;;;;;;;21.80;45.52;95641.78;5055534;28;20238;-62
2022/10/24 03:13:16;;;;;;;3.97;2.85;;;;;;;21.67;45.37;95600.66;5026950;28;20416;-70
2022/10/24 03:15:41;;;;;;;4.78;3.28;;;;;;;21.82;45.67;95631.16;5044638;28;20442;-66
2022/10/24 03:18:07;;;;;;;4.55;3.28;;;;;;;21.63;45.50;95605.59;5035077;28;20519;-65
2022/10/24 03:20:32;;;;;;;4.78;3.15;;;;;;;21.77;45.57;95624.47;5062815;28;20143;-63
2022/10/24 03:22:58;;;;;;;4.05;2.90;;;;;;;21.79;45.44;95623.97;5047321;28;20037;-71
2022/10/24 03:25:23;;;;;;;3.67;2.72;;;;;;;21.35;45.47;95561.13;5032898;28;20040;-66
2022/10/24 03:27:49;;;;;;;3.95;3.20;;;;;;;21.74;45.40;95616.53;5041199;28;20040;-65
2022/10/24 03:30:14;;;;;;;4.55;3.22;;;;;;;21.69;45.35;95598.22;5059978;28;20068;-67
2022/10/24 03:32:40;;;;;;;3.42;2.78;;;;;;;21.78;45.64;95638.78;5062100;28;20052;-69
2022/10/24 03:35:05;;;;;;;4.75;3.10;;;;;;;20.96;45.30;95515.13;5054339;28;20754;-62
2022/10/24 03:37:31;;;;;;;4.60;3.17;;;;;;;21.78;45.39;95617.03;5054654;28;20036;-69
2022/10/24 03:39:56;;;;;;;3.75;2.95;;;;;;;21.78;45.39;95627.91;5033653;28;20478;-68
2022/10/24 03:42:21;;;;;;;4.25;3.17;;;;;;;21.72;45.41;95619.75;5062186;28;20122;-64
2022/10/24 03:44:47;;;;;;;5.05;3.38;;;;;;;21.77;45.31;95626.44;5044832;28;20049;-67
2022/10/24 03:47:12;;;;;;;4.30;3.15;;;;;;;21.77;45.37;95626.44;5050620;28;20048;-67
2022/10/24 03:49:38;;;;;;;3.85;3.17;;;;;;;21.77;45.49;95627.19;5062646;28;20508;-66
2022/10/24 03:52:04;;;;;;;3.90;3.13;;;;;;;21.76;45.36;95633.84;5033284;28;20048;-62
2022/10/24 03:54:29;;;;;;;5.03;3.25;;;;;;;21.78;45.27;95627.91;5015813;28;20079;-63
2022/10/24 03:56:54;;;;;;;4.85;3.30;;;;;;;21.75;45.50;95624.22;5024088;28;20053;-72
2022/10/24 03:59:20;;;;;;;3.80;3.13;;;;;;;21.76;45.65;95636.56;5061848;28;20083;-59
2022/10/24 04:01:45;;;;;;;4.35;3.55;;;;;;;21.76;45.51;95624.94;5034149;28;20186;-67
2022/10/24 04:04:11;;;;;;;4.55;3.00;;;;;;;21.76;45.37;95627.66;5014522;28;20032;-69
2022/10/24 04:06:36;;;;;;;4.40;3.25;;;;;;;21.73;45.51;95620.47;5046315;28;20549;-69
2022/10/24 04:09:02;;;;;;;4.13;3.38;;;;;;;21.75;45.53;95618.00;5038988;28;20494;-67
2022/10/24 04:11:28;;;;;;;4.40;3.35;;;;;;;20.98;45.29;95497.88;5054770;28;20063;-69
2022/10/24 04:13:53;;;;;;;4.78;3.30;;;;;;;21.69;45.48;95609.09;5037649;28;20040;-60
2022/10/24 04:16:19;;;;;;;4.85;3.30;;;;;;;21.74;45.50;95608.38;5005185;28;20807;-62
2022/10/24 04:18:44;;;;;;;4.40;3.20;;;;;;;20.80;45.55;95464.16;5024275;28;20668;-64
2022/10/24 04:21:10;;;;;;;4.28;3.10;;;;;;;21.03;45.37;95510.75;5005243;28;20410;-63
2022/10/24 04:23:39;;;;;;;4.35;3.30;;;;;;;20.91;45.21;95475.09;5012128;28;20045;-64
2022/10/24 04:26:06;;;;;;;3.83;3.13;;;;;;;21.76;45.29;95592.31;5058343;28;20702;-65
2022/10/24 04:28:31;;;;;;;4.28;3.33;;;;;;;20.99;45.08;95466.78;5028298;28;20124;-70
2022/10/24 04:30:57;;;;;;;3.90;3.00;;;;;;;22.05;45.07;95615.25;4987873;28;20512;-63
2022/10/24 04:33:22;;;;;;;3.95;3.10;;;;;;;22.19;44.95;95614.34;5002969;28;20461;-67
2022/10/24 04:35:49;;;;;;;4.88;3.20;;;;;;;22.24;45.05;95627.28;5003229;28;20049;-69
2022/10/24 04:38:14;;;;;;;4.00;3.05;;;;;;;22.29;44.86;95628.53;5004582;28;20596;-66
2022/10/24 04:40:40;;;;;;;4.88;3.10;;;;;;;21.64;44.56;95520.09;5021315;28;20057;-63
2022/10/24 04:43:05;;;;;;;4.07;3.25;;;;;;;22.48;44.49;95624.88;5019097;28;20041;-62
2022/10/24 04:45:31;;;;;;;5.47;3.50;;;;;;;22.50;44.45;95606.13;5019461;28;20052;-66
2022/10/24 04:47:56;;;;;;;4.63;3.40;;;;;;;21.86;44.78;95520.22;5020252;28;20068;-67
2022/10/24 04:50:21;;;;;;;5.13;3.20;;;;;;;22.65;44.34;95617.56;5007670;28;20409;-66
2022/10/24 04:52:47;;;;;;;5.63;3.22;;;;;;;22.50;43.99;95578.91;5050116;28;20439;-63
2022/10/24 04:55:12;;;;;;;7.00;3.40;;;;;;;22.88;43.98;95636.94;5037094;28;20029;-66
2022/10/24 04:57:38;;;;;;;5.20;3.15;;;;;;;22.86;44.38;95637.94;5045530;28;20048;-59
2022/10/24 05:00:04;;;;;;;8.13;3.72;;;;;;;22.67;44.05;95625.97;5038221;28;20497;-64
2022/10/24 05:02:29;;;;;;;3.42;2.83;;;;;;;21.47;43.68;95399.69;5021621;28;20094;-62
2022/10/24 05:04:54;;;;;;;5.63;3.47;;;;;;;22.98;44.26;95635.50;5053012;28;20496;-65
2022/10/24 05:07:20;;;;;;;4.82;2.95;;;;;;;23.05;43.92;95637.75;5059250;28;20125;-64
2022/10/24 05:09:46;;;;;;;5.55;3.20;;;;;;;23.20;42.97;95613.75;5049425;28;20048;-64
2022/10/24 05:12:12;;;;;;;5.43;3.00;;;;;;;23.00;43.24;95605.81;5039856;28;20037;-68
2022/10/24 05:14:37;;;;;;;5.65;3.60;;;;;;;23.32;42.82;95637.06;5019867;28;20145;-60
2022/10/24 05:17:03;;;;;;;4.65;3.42;;;;;;;23.25;43.06;95632.09;5039855;28;20778;-69
2022/10/24 05:19:28;;;;;;;4.50;3.15;;;;;;;23.25;42.82;95643.00;5024584;28;20032;-64
2022/10/24 05:21:54;;;;;;;4.43;3.55;;;;;;;23.59;42.21;95639.09;5059923;28;20036;-65
2022/10/24 05:24:19;;;;;;;7.38;3.20;;;;;;;23.84;42.18;95643.56;5042277;28;20134;-66
2022/10/24 05:26:45;;;;;;;8.40;2.78;;;;;;;23.86;42.16;95662.91;5019985;28;20470;-70
2022/10/24 05:29:10;;;;;;;12.02;3.75;;;;;;;23.67;41.69;95623.72;5042353;28;20036;-70
2022/10/24 05:31:36;;;;;;;6.28;3.05;;;;;;;23.82;41.85;95640.59;5042076;28;20055;-66
2022/10/24 05:34:01;;;;;;;7.32;3.38;;;;;;;23.77;41.93;95644.06;5061263;28;20037;-68
2022/10/24 05:36:26;;;;;;;8.98;3.20;;;;;;;23.80;41.24;95643.06;5041376;28;20044;-70
2022/10/24 05:38:52;;;;;;;9.48;3.20;;;;;;;23.98;40.93;95616.75;5041997;28;20048;-65
2022/10/24 05:41:17;;;;;;;6.07;3.15;;;;;;;23.84;41.60;95640.81;5054171;28;20052;-59
2022/10/24 05:43:43;;;;;;;15.82;3.97;;;;;;;23.85;41.73;95604.13;5048692;28;20072;-68
2022/10/24 05:46:09;;;;;;;13.02;3.80;;;;;;;23.99;41.44;95645.53;5040335;28;20133;-64
2022/10/24 05:48:35;;;;;;;8.85;3.80;;;;;;;21.77;41.28;95330.16;5059168;28;20044;-66
2022/10/24 05:51:00;;;;;;;7.97;3.45;;;;;;;23.80;41.79;95660.19;5040855;28;20052;-65
2022/10/24 05:53:25;;;;;;;8.70;3.42;;;;;;;23.86;41.50;95656.19;5029240;28;20466;-66
2022/10/24 05:55:51;;;;;;;8.63;3.80;;;;;;;23.65;42.07;95648.03;5058623;28;20139;-67
2022/10/24 05:58:20;;;;;;;5.55;3.55;;;;;;;23.57;42.40;95657.91;5041350;28;20806;-70
2022/10/24 06:00:46;;;;;;;10.00;4.00;;;;;;;23.59;41.91;95664.34;5042426;28;20025;-62
2022/10/24 06:03:11;;;;;;;9.90;3.60;;;;;;;23.51;42.06;95676.22;5059377;28;20123;-65
2022/10/24 06:05:37;;;;;;;8.30;4.00;;;;;;;22.99;42.25;95604.31;5059150;28;20048;-63
2022/10/24 06:08:02;;;;;;;9.27;3.95;;;;;;;23.45;42.64;95670.03;5058902;28;20067;-65
2022/10/24 06:10:28;;;;;;;8.18;3.50;;;;;;;23.49;42.27;95690.34;5041877;28;20399;-68
2022/10/24 06:12:53;;;;;;;9.00;3.88;;;;;;;23.56;42.18;95672.78;5059474;28;20051;-64
2022/10/24 06:15:19;;;;;;;7.30;3.83;;;;;;;23.51;42.22;95695.31;5042098;28;20436;-64
2022/10/24 06:17:44;;;;;;;7.88;3.80;;;;;;;23.58;42.31;95670.31;5058333;28;20044;-65
2022/10/24 06:20:10;;;;;;;6.72;3.70;;;;;;;21.92;42.46;95432.75;5059937;28;20055;-68
2022/10/24 06:22:35;;;;;;;6.68;4.18;;;;;;;23.33;41.80;95633.09;5059228;28;20036;-64
2022/10/24 06:25:00;;;;;;;8.38;3.80;;;;;;;23.60;41.85;95673.25;5042376;28;20086;-71
2022/10/24 06:27:26;;;;;;;10.93;4.20;;;;;;;23.47;42.44;95692.84;5053323;28;20045;-67
2022/10/24 06:29:51;;;;;;;6.80;3.75;;;;;;;23.58;42.02;95673.75;5058532;28;20556;-65
2022/10/24 06:32:17;;;;;;;6.90;3.97;;;;;;;23.61;41.87;95680.22;5060150;28;20041;-60
2022/10/24 06:34:42;;;;;;;6.53;3.40;;;;;;;23.32;41.88;95645.25;5060049;28;20505;-68
2022/10/24 06:37:08;;;;;;;8.93;3.88;;;;;;;23.62;42.18;95681.72;5058752;28;20421;-66
2022/10/24 06:39:33;;;;;;;5.85;3.35;;;;;;;23.65;41.84;95675.31;5058524;28;20052;-61
2022/10/24 06:41:59;;;;;;;5.70;3.58;;;;;;;23.66;42.02;95676.78;5059284;28;20044;-67
2022/10/24 06:44:25;;;;;;;10.88;4.38;;;;;;;23.59;42.04;95710.69;5038347;28;20071;-68
2022/10/24 06:46:50;;;;;;;15.60;4.75;;;;;;;23.91;41.24;95677.25;5036293;28;20434;-67
2022/10/24 06:49:16;;;;;;;11.20;6.28;;;;;;;24.15;40.31;95693.88;5048235;28;20028;-66
2022/10/24 06:51:41;;;;;;;13.60;6.80;;;;;;;24.09;39.82;95693.13;5056131;28;20432;-62
2022/10/24 06:54:07;;;;;;;13.27;6.78;;;;;;;23.70;40.41;95699.09;5040571;28;20429;-67
2022/10/24 06:56:32;;;;;;;16.48;7.97;;;;;;;23.70;40.25;95693.66;5042245;28;20048;-67
2022/10/24 06:58:58;;;;;;;18.58;7.47;;;;;;;23.28;40.46;95701.97;5062089;28;20493;-69
2022/10/24 07:01:24;;;;;;;14.95;8.55;;;;;;;22.53;39.95;95610.59;5062049;28;20523;-65
2022/10/24 07:03:50;;;;;;;16.25;8.70;;;;;;;22.18;39.72;95574.03;5045316;28;20483;-67
2022/10/24 07:06:19;;;;;;;15.02;8.73;;;;;;;22.96;39.60;95692.47;5062959;28;20087;-61
2022/10/24 07:08:45;;;;;;;16.23;8.95;;;;;;;22.56;40.24;95693.97;5063657;28;20048;-65
2022/10/24 07:11:10;;;;;;;18.20;8.70;;;;;;;22.63;40.03;95698.94;5012959;28;20098;-63
2022/10/24 07:13:36;;;;;;;13.93;9.15;;;;;;;22.47;39.61;95658.81;5062808;28;20040;-66
2022/10/24 07:16:01;;;;;;;15.55;8.73;;;;;;;22.58;39.95;95694.22;5045284;28;20025;-66
2022/10/24 07:18:26;;;;;;;15.80;8.40;;;;;;;22.04;39.78;95613.75;5028829;28;20688;-63
2022/10/24 07:20:52;;;;;;;16.80;8.48;;;;;;;22.47;40.07;95699.63;5050205;28;20483;-63
2022/10/24 07:23:17;;;;;;;13.90;8.40;;;;;;;21.86;40.00;95609.94;5062772;28;20428;-65
2022/10/24 07:25:43;;;;;;;15.60;8.40;;;;;;;22.21;40.04;95660.91;5062564;28;20037;-69
2022/10/24 07:28:10;;;;;;;16.50;9.02;;;;;;;22.19;40.65;95698.66;5028590;28;20185;-67
2022/10/24 07:30:35;;;;;;;16.80;8.82;;;;;;;22.18;40.46;95683.59;5062363;28;20032;-61
2022/10/24 07:33:01;;;;;;;14.10;8.48;;;;;;;21.96;41.01;95710.63;5062084;28;20139;-70
2022/10/24 07:35:26;;;;;;;16.90;8.68;;;;;;;22.22;40.48;95677.94;5044828;28;20509;-66
2022/10/24 07:37:52;;;;;;;19.02;9.55;;;;;;;21.94;40.94;95669.59;5061582;28;20077;-67
2022/10/24 07:40:18;;;;;;;18.98;9.20;;;;;;;21.75;40.90;95654.09;5044073;28;20487;-63
2022/10/24 07:42:43;;;;;;;17.10;8.80;;;;;;;21.58;42.07;95679.66;5062631;28;20150;-69
2022/10/24 07:45:09;;;;;;;14.73;8.57;;;;;;;21.48;42.19;95698.09;5027823;28;20170;-62
2022/10/24 07:47:34;;;;;;;12.32;8.25;;;;;;;20.64;42.32;95567.81;5053243;28;20509;-65
2022/10/24 07:50:00;;;;;;;16.42;8.20;;;;;;;21.47;42.52;95690.44;5053847;28;20497;-68
2022/10/24 07:52:25;;;;;;;16.08;8.13;;;;;;;21.43;42.77;95689.84;5053620;28;20057;-66
2022/10/24 07:54:54;;;;;;;12.45;8.00;;;;;;;20.68;42.66;95576.53;5044593;28;20501;-62
2022/10/24 07:57:20;;;;;;;13.18;7.53;;;;;;;21.44;42.75;95681.22;5058545;28;20040;-66
2022/10/24 07:59:45;;;;;;;16.00;8.35;;;;;;;21.43;42.59;95679.00;5044247;28;20059;-67
2022/10/24 08:02:11;;;;;;;11.98;7.78;;;;;;;21.50;42.69;95681.31;5044231;28;20041;-67
2022/10/24 08:04:37;;;;;;;16.13;8.00;;;;;;;21.46;42.60;95678.06;5062160;28;20527;-64
2022/10/24 08:07:02;;;;;;;13.93;7.40;;;;;;;21.46;42.42;95672.63;5044636;28;20485;-67
2022/10/24 08:09:28;;;;;;;12.48;7.80;;;;;;;20.66;42.43;95543.69;5061561;28;20041;-62
2022/10/24 08:11:53;;;;;;;13.63;8.27;;;;;;;21.56;42.45;95676.69;5058292;28;20033;-72
2022/10/24 08:14:18;;;;;;;13.02;7.63;;;;;;;21.59;42.27;95692.03;5044232;28;20052;-68
2022/10/24 08:16:44;;;;;;;13.85;7.10;;;;;;;21.62;42.34;95669.31;5060101;28;20056;-65
2022/10/24 08:19:10;;;;;;;12.77;8.00;;;;;;;21.67;42.17;95671.31;5047330;28;20475;-63
2022/10/24 08:21:36;;;;;;;15.73;8.02;;;;;;;21.75;42.18;95675.09;5061742;28;20051;-70
2022/10/24 08:24:01;;;;;;;12.68;7.10;;;;;;;21.78;42.01;95671.41;5043964;28;20040;-66
2022/10/24 08:26:27;;;;;;;15.60;7.65;;;;;;;21.77;42.12;95678.09;5051032;28;20041;-65
2022/10/24 08:28:54;;;;;;;13.80;7.43;;;;;;;21.88;42.22;95672.72;5035863;28;20564;-63
2022/10/24 08:31:20;;;;;;;15.50;8.13;;;;;;;21.89;42.10;95666.06;5061434;28;20136;-59
2022/10/24 08:33:46;;;;;;;14.27;8.13;;;;;;;21.92;42.17;95670.56;5044667;28;20127;-66
2022/10/24 08:36:25;;;;;;;15.40;9.48;;;;;;;21.95;41.79;95665.63;5061823;28;20123;-67
2022/10/24 08:38:50;;;;;;;12.43;8.18;;;;;;;21.99;42.00;95666.16;5050564;28;20049;-65
2022/10/24 08:41:39;;;;;;;13.35;8.00;;;;;;;21.89;42.26;95650.50;5038189;28;20067;-66
2022/10/24 08:44:25;;;;;;;13.05;8.10;;;;;;;22.06;42.46;95665.72;5046161;28;20182;-63
2022/10/24 08:46:54;;;;;;;12.65;8.07;;;;;;;20.51;41.81;95420.97;5043441;28;20045;-64
2022/10/24 08:49:25;;;;;;;16.27;8.02;;;;;;;22.06;42.05;95649.38;5023828;28;20396;-62
2022/10/24 08:52:22;;;;;;;15.20;7.95;;;;;;;22.15;42.04;95646.47;5014895;28;20119;-67
2022/10/24 08:54:48;;;;;;;12.38;7.35;;;;;;;21.46;42.03;95531.34;5032087;28;20045;-72
2022/10/24 08:57:21;;;;;;;15.55;7.63;;;;;;;22.15;41.98;95637.56;5023958;28;20060;-68
2022/10/24 08:59:46;;;;;;;12.48;8.10;;;;;;;20.68;42.08;95405.59;5039943;28;20040;-67
2022/10/24 09:02:16;;;;;;;13.07;7.47;;;;;;;22.35;41.72;95632.75;5041101;28;20387;-66
2022/10/24 09:04:48;;;;;;;11.40;7.70;;;;;;;22.37;42.00;95630.28;5040296;28;20076;-63
2022/10/24 09:07:16;;;;;;;12.95;7.43;;;;;;;22.39;41.62;95627.84;5041943;28;20033;-68
2022/10/24 09:09:45;;;;;;;10.45;7.50;;;;;;;22.42;41.48;95626.88;5010312;28;20340;-63
2022/10/24 09:12:12;;;;;;;12.38;7.30;;;;;;;22.49;41.69;95631.84;5022941;28;20101;-70
2022/10/24 09:14:39;;;;;;;12.63;7.00;;;;;;;21.30;41.52;95442.31;5039851;28;20045;-67
2022/10/24 09:17:34;;;;;;;11.18;7.20;;;;;;;22.56;41.44;95625.94;5039374;28;20052;-66
2022/10/24 09:20:02;;;;;;;12.43;7.22;;;;;;;22.44;41.60;95613.50;5039678;28;20073;-66
2022/10/24 09:22:29;;;;;;;13.57;7.40;;;;;;;22.51;41.79;95604.88;5040754;28;20112;-61
2022/10/24 09:25:11;;;;;;;11.57;7.10;;;;;;;22.40;41.79;95574.91;5022997;28;20037;-64
2022/10/24 09:27:37;;;;;;;11.52;7.40;;;;;;;21.80;41.02;95471.25;5018973;28;20045;-66
2022/10/24 09:30:04;;;;;;;10.93;6.70;;;;;;;22.75;41.67;95618.81;5023118;28;20147;-69
2022/10/24 09:32:31;;;;;;;10.77;6.90;;;;;;;22.67;41.39;95602.19;5017615;28;20103;-60
2022/10/24 09:35:04;;;;;;;12.75;7.47;;;;;;;22.87;41.35;95615.66;5002239;28;20096;-67
2022/10/24 09:37:50;;;;;;;10.18;6.97;;;;;;;22.88;41.60;95615.16;5020951;28;20045;-67
2022/10/24 09:40:21;;;;;;;14.45;7.38;;;;;;;22.93;41.53;95628.06;5019588;28;20037;-58
2022/10/24 09:42:59;;;;;;;13.32;7.13;;;;;;;22.94;41.64;95618.69;5020468;28;20025;-65
2022/10/24 09:45:29;;;;;;;11.25;6.80;;;;;;;23.10;40.84;95598.88;5018335;28;20080;-64
2022/10/24 09:48:15;;;;;;;13.23;8.00;;;;;;;23.26;41.03;95606.34;5022439;28;20049;-67
2022/10/24 09:50:40;;;;;;;10.48;6.80;;;;;;;23.27;40.49;95607.81;5008496;28;20132;-63
2022/10/24 09:53:06;;;;;;;10.68;7.10;;;;;;;23.37;40.82;95616.50;5035186;28;20056;-66
2022/10/24 09:55:33;;;;;;;11.52;6.63;;;;;;;23.50;40.54;95599.16;5018634;28;20037;-61
2022/10/24 09:58:02;;;;;;;12.63;7.18;;;;;;;23.08;40.10;95529.81;5019174;28;20029;-68
2022/10/24 10:00:33;;;;;;;10.93;6.15;;;;;;;23.64;40.57;95600.19;5024821;28;20052;-63
2022/10/24 10:03:18;;;;;;;10.40;6.85;;;;;;;23.57;40.04;95576.09;5031954;28;20048;-60
2022/10/24 10:06:01;;;;;;;10.18;6.93;;;;;;;23.81;40.27;95614.53;5034200;28;20630;-60
2022/10/24 10:08:28;;;;;;;9.93;6.53;;;;;;;22.83;39.68;95464.63;5037126;28;20045;-63
2022/10/24 10:11:03;;;;;;;11.10;6.75;;;;;;;23.90;39.99;95585.78;5017816;28;20565;-63
2022/10/24 10:13:28;;;;;;;13.55;6.78;;;;;;;23.87;39.87;95578.59;5027522;28;20036;-62
2022/10/24 10:15:59;;;;;;;13.88;6.80;;;;;;;23.96;39.42;95583.03;5026225;28;20041;-58
2022/10/24 10:18:36;;;;;;;;;;;;;;;24.03;39.60;95569.63;5027024;28;20531;-65
2022/10/24 10:21:16;;;;;;;10.55;6.55;;;;;;;23.08;39.12;95437.19;5030141;28;20404;-65
2022/10/24 10:23:51;;;;;;;14.57;6.65;;;;;;;23.89;39.50;95532.44;5019684;28;20064;-69
2022/10/24 10:26:27;;;;;;;10.48;6.25;;;;;;;24.16;38.99;95571.84;5019039;28;20227;-68
2022/10/24 10:29:22;;;;;;;11.82;6.07;;;;;;;24.22;39.08;95581.47;5034221;28;20501;-64
2022/10/24 10:31:56;;;;;;;8.20;5.63;;;;;;;24.25;38.74;95557.91;5018889;28;20197;-67
2022/10/24 10:34:34;;;;;;;11.10;6.22;;;;;;;24.43;39.09;95558.09;5041689;28;20029;-69
2022/10/24 10:37:32;;;;;;;10.40;6.22;;;;;;;23.68;38.82;95450.72;5038955;28;20083;-67
2022/10/24 10:40:10;;;;;;;9.88;6.13;;;;;;;24.37;39.14;95554.66;5000404;28;20053;-63
2022/10/24 10:42:49;;;;;;;10.38;6.65;;;;;;;24.36;38.57;95531.31;5020453;28;20041;-67
2022/10/24 10:45:42;;;;;;;10.77;5.95;;;;;;;24.52;38.78;95560.56;5042622;28;20037;-65
2022/10/24 10:48:22;;;;;;;9.13;6.00;;;;;;;24.50;39.13;95546.66;5043544;28;20041;-62
2022/10/24 10:50:50;;;;;;;11.05;5.68;;;;;;;24.74;38.74;95538.56;5049283;28;20080;-68
2022/10/24 10:53:22;;;;;;;9.07;5.75;;;;;;;23.86;39.27;95439.25;5043722;28;20037;-59
2022/10/24 10:56:16;;;;;;;12.38;5.50;;;;;;;24.65;39.15;95536.13;5007474;28;20094;-66
2022/10/24 10:59:09;;;;;;;12.18;5.78;;;;;;;24.45;39.78;95528.31;5011444;28;20093;-59
2022/10/24 11:01:50;;;;;;;10.32;6.43;;;;;;;24.66;39.43;95532.16;5053120;28;20485;-63
2022/10/24 11:04:25;;;;;;;8.02;5.38;;;;;;;24.67;39.07;95537.13;5063572;28;20132;-61
2022/10/24 11:07:19;;;;;;;10.23;5.78;;;;;;;24.54;39.14;95520.59;5063626;28;20551;-69
2022/10/24 11:09:55;;;;;;;8.38;6.00;;;;;;;23.79;39.77;95404.31;5052615;28;20060;-65
2022/10/24 11:12:33;;;;;;;9.38;5.65;;;;;;;23.77;39.21;95398.63;5045832;28;20037;-60
2022/10/24 11:15:01;;;;;;;9.85;5.40;;;;;;;23.64;39.45;95382.06;5046398;28;20551;-70
2022/10/24 11:17:46;;;;;;;8.02;5.30;;;;;;;24.32;39.46;95470.78;5063314;28;20159;-70
2022/10/24 11:20:54;;;;;;;8.52;5.13;;;;;;;24.55;39.47;95513.13;5045192;28;20060;-62
2022/10/24 11:23:40;;;;;;;11.95;5.10;;;;;;;24.28;39.84;95513.97;4987045;28;20046;-62
2022/10/24 11:26:12;;;;;;;12.52;5.95;;;;;;;24.16;39.66;95485.25;5062006;28;20036;-64
2022/10/24 11:28:52;;;;;;;11.40;5.30;;;;;;;24.30;39.53;95500.56;5028880;28;20025;-68
2022/10/24 11:31:23;;;;;;;8.80;5.68;;;;;;;24.19;39.53;95478.78;5042926;28;20456;-63
2022/10/24 11:34:06;;;;;;;9.38;5.28;;;;;;;24.20;39.76;95474.81;5024250;28;20135;-69
2022/10/24 11:36:42;;;;;;;8.43;5.15;;;;;;;24.33;40.00;95482.47;5044588;28;20049;-59
2022/10/24 11:39:32;;;;;;;10.65;6.00;;;;;;;24.33;39.80;95466.81;5045217;28;20043;-68
2022/10/24 11:41:57;;;;;;;9.90;4.95;;;;;;;24.20;39.98;95479.50;5047195;28;20090;-61